sensor_id;sensor_type;location;lat;lon;timestamp;pressure;altitude;pressure_sealevel;temperature;humidity
37078;BME280;22989;55.998;37.212;2023-04-07T00:00:11;-11298.94;;;-145.39;44.54
37078;BME280;22989;55.998;37.212;2023-04-07T00:02:37;-11298.94;;;-145.39;44.46
37078;BME280;22989;55.998;37.212;2023-04-07T00:05:02;-11298.94;;;-145.39;44.73
37078;BME280;22989;55.998;37.212;2023-04-07T00:07:28;-11298.94;;;-145.39;44.85
37078;BME280;22989;55.998;37.212;2023-04-07T00:09:53;-11298.94;;;-145.39;44.88
37078;BME280;22989;55.998;37.212;2023-04-07T00:12:18;-11298.94;;;-145.39;44.86
37078;BME280;22989;55.998;37.212;2023-04-07T00:14:44;-11298.94;;;-145.39;44.81
37078;BME280;22989;55.998;37.212;2023-04-07T00:17:10;-11298.94;;;-145.39;44.90
37078;BME280;22989;55.998;37.212;2023-04-07T00:19:35;-11298.94;;;-145.39;44.99
37078;BME280;22989;55.998;37.212;2023-04-07T00:22:01;-11298.94;;;-145.39;45.06
37078;BME280;22989;55.998;37.212;2023-04-07T00:24:26;-11298.94;;;-145.39;45.12
37078;BME280;22989;55.998;37.212;2023-04-07T00:26:52;-11298.94;;;-145.39;45.23
37078;BME280;22989;55.998;37.212;2023-04-07T00:29:17;-11298.94;;;-145.39;45.12
37078;BME280;22989;55.998;37.212;2023-04-07T00:31:43;-11298.94;;;-145.39;45.23
37078;BME280;22989;55.998;37.212;2023-04-07T00:34:08;-11298.94;;;-145.39;45.44
37078;BME280;22989;55.998;37.212;2023-04-07T00:36:34;-11298.94;;;-145.39;45.60
37078;BME280;22989;55.998;37.212;2023-04-07T00:38:59;-11298.94;;;-145.39;45.77
37078;BME280;22989;55.998;37.212;2023-04-07T00:41:25;-11298.94;;;-145.39;45.74
37078;BME280;22989;55.998;37.212;2023-04-07T00:43:50;-11298.94;;;-145.39;45.80
37078;BME280;22989;55.998;37.212;2023-04-07T00:46:16;-11298.94;;;-145.39;45.71
37078;BME280;22989;55.998;37.212;2023-04-07T00:48:42;-11298.94;;;-145.39;46.02
37078;BME280;22989;55.998;37.212;2023-04-07T00:51:08;-11298.94;;;-145.39;46.09
37078;BME280;22989;55.998;37.212;2023-04-07T00:53:33;-11298.94;;;-145.39;46.11
37078;BME280;22989;55.998;37.212;2023-04-07T00:55:59;-11298.94;;;-145.39;46.44
37078;BME280;22989;55.998;37.212;2023-04-07T00:58:24;-11298.94;;;-145.39;46.60
37078;BME280;22989;55.998;37.212;2023-04-07T01:01:10;-11298.94;;;-145.39;46.40
37078;BME280;22989;55.998;37.212;2023-04-07T01:06:39;-11298.94;;;-145.39;46.65
37078;BME280;22989;55.998;37.212;2023-04-07T01:09:22;-11298.94;;;-145.39;46.60
37078;BME280;22989;55.998;37.212;2023-04-07T01:14:18;-11298.94;;;-145.39;46.82
37078;BME280;22989;55.998;37.212;2023-04-07T01:16:51;-11298.94;;;-145.39;46.85
37078;BME280;22989;55.998;37.212;2023-04-07T01:22:09;-11298.94;;;-145.39;46.81
37078;BME280;22989;55.998;37.212;2023-04-07T01:27:35;-11298.94;;;-145.39;46.65
37078;BME280;22989;55.998;37.212;2023-04-07T01:30:02;-11298.94;;;-145.39;46.81
37078;BME280;22989;55.998;37.212;2023-04-07T01:32:28;-11298.94;;;-145.39;46.95
37078;BME280;22989;55.998;37.212;2023-04-07T01:34:54;-11298.94;;;-145.39;47.02
37078;BME280;22989;55.998;37.212;2023-04-07T01:37:21;-11298.94;;;-145.39;47.13
37078;BME280;22989;55.998;37.212;2023-04-07T01:39:47;-11298.94;;;-145.39;47.16
37078;BME280;22989;55.998;37.212;2023-04-07T01:42:13;-11298.94;;;-145.39;47.27
37078;BME280;22989;55.998;37.212;2023-04-07T01:44:39;-11298.94;;;-145.39;47.56
37078;BME280;22989;55.998;37.212;2023-04-07T01:47:05;-11298.94;;;-145.39;47.57
37078;BME280;22989;55.998;37.212;2023-04-07T01:49:31;-11298.94;;;-145.39;47.71
37078;BME280;22989;55.998;37.212;2023-04-07T01:51:58;-11298.94;;;-145.39;47.93
37078;BME280;22989;55.998;37.212;2023-04-07T01:54:23;-11298.94;;;-145.39;47.87
37078;BME280;22989;55.998;37.212;2023-04-07T01:56:51;-11298.94;;;-145.39;48.06
37078;BME280;22989;55.998;37.212;2023-04-07T01:59:16;-11298.94;;;-145.39;48.18
37078;BME280;22989;55.998;37.212;2023-04-07T02:01:43;-11298.94;;;-145.39;48.27
37078;BME280;22989;55.998;37.212;2023-04-07T02:06:41;-11298.94;;;-145.39;48.22
37078;BME280;22989;55.998;37.212;2023-04-07T02:09:09;-11298.94;;;-145.39;48.19
37078;BME280;22989;55.998;37.212;2023-04-07T02:11:35;-11298.94;;;-145.39;48.21
37078;BME280;22989;55.998;37.212;2023-04-07T02:14:03;-11298.94;;;-145.39;48.33
37078;BME280;22989;55.998;37.212;2023-04-07T02:16:37;-11298.94;;;-145.39;48.38
37078;BME280;22989;55.998;37.212;2023-04-07T02:19:04;-11298.94;;;-145.39;48.33
37078;BME280;22989;55.998;37.212;2023-04-07T02:21:30;-11298.94;;;-145.39;48.58
37078;BME280;22989;55.998;37.212;2023-04-07T02:23:59;-11298.94;;;-145.39;48.45
37078;BME280;22989;55.998;37.212;2023-04-07T02:26:25;-11298.94;;;-145.39;48.51
37078;BME280;22989;55.998;37.212;2023-04-07T02:28:50;-11298.94;;;-145.39;48.43
37078;BME280;22989;55.998;37.212;2023-04-07T02:31:16;-11298.94;;;-145.39;48.55
37078;BME280;22989;55.998;37.212;2023-04-07T02:33:41;-11298.94;;;-145.39;48.59
37078;BME280;22989;55.998;37.212;2023-04-07T02:36:07;-11298.94;;;-145.39;48.62
37078;BME280;22989;55.998;37.212;2023-04-07T02:38:32;-11298.94;;;-145.39;48.70
37078;BME280;22989;55.998;37.212;2023-04-07T02:40:58;-11298.94;;;-145.39;48.73
37078;BME280;22989;55.998;37.212;2023-04-07T02:43:23;-11298.94;;;-145.39;48.70
37078;BME280;22989;55.998;37.212;2023-04-07T02:45:50;-11298.94;;;-145.39;48.68
37078;BME280;22989;55.998;37.212;2023-04-07T02:48:15;-11298.94;;;-145.39;48.67
37078;BME280;22989;55.998;37.212;2023-04-07T02:50:41;-11298.94;;;-145.39;48.69
37078;BME280;22989;55.998;37.212;2023-04-07T02:53:07;-11298.94;;;-145.39;48.68
37078;BME280;22989;55.998;37.212;2023-04-07T02:55:33;-11298.94;;;-145.39;48.83
37078;BME280;22989;55.998;37.212;2023-04-07T02:57:58;-11298.94;;;-145.39;48.81
37078;BME280;22989;55.998;37.212;2023-04-07T03:00:37;-11298.94;;;-145.39;48.70
37078;BME280;22989;55.998;37.212;2023-04-07T03:03:19;-11298.94;;;-145.39;48.82
37078;BME280;22989;55.998;37.212;2023-04-07T03:06:08;-11298.94;;;-145.39;48.75
37078;BME280;22989;55.998;37.212;2023-04-07T03:08:40;-11298.94;;;-145.39;48.84
37078;BME280;22989;55.998;37.212;2023-04-07T03:11:06;-11298.94;;;-145.39;48.77
37078;BME280;22989;55.998;37.212;2023-04-07T03:13:32;-11298.94;;;-145.39;48.72
37078;BME280;22989;55.998;37.212;2023-04-07T03:16:00;-11298.94;;;-145.39;48.70
37078;BME280;22989;55.998;37.212;2023-04-07T03:18:32;-11298.94;;;-145.39;48.67
37078;BME280;22989;55.998;37.212;2023-04-07T03:20:59;-11298.94;;;-145.39;48.48
37078;BME280;22989;55.998;37.212;2023-04-07T03:23:25;-11298.94;;;-145.39;47.82
37078;BME280;22989;55.998;37.212;2023-04-07T03:25:56;-11298.94;;;-145.39;47.28
37078;BME280;22989;55.998;37.212;2023-04-07T03:28:22;-11298.94;;;-145.39;47.17
37078;BME280;22989;55.998;37.212;2023-04-07T03:30:48;-11298.94;;;-145.39;46.03
37078;BME280;22989;55.998;37.212;2023-04-07T03:33:14;-11298.94;;;-145.39;44.30
37078;BME280;22989;55.998;37.212;2023-04-07T03:35:39;-11298.94;;;-145.39;42.96
37078;BME280;22989;55.998;37.212;2023-04-07T03:38:06;-11298.94;;;-145.39;40.67
37078;BME280;22989;55.998;37.212;2023-04-07T03:40:32;-11298.94;;;-145.39;39.50
37078;BME280;22989;55.998;37.212;2023-04-07T03:42:58;-11298.94;;;-145.39;38.67
37078;BME280;22989;55.998;37.212;2023-04-07T03:45:23;-11298.94;;;-145.39;37.94
37078;BME280;22989;55.998;37.212;2023-04-07T03:47:50;-11298.94;;;-145.39;37.28
37078;BME280;22989;55.998;37.212;2023-04-07T03:50:16;-11298.94;;;-145.39;36.91
37078;BME280;22989;55.998;37.212;2023-04-07T03:52:59;-11298.94;;;-145.39;36.75
37078;BME280;22989;55.998;37.212;2023-04-07T03:55:29;-11298.94;;;-145.39;35.07
37078;BME280;22989;55.998;37.212;2023-04-07T03:57:59;-11298.94;;;-145.39;34.94
37078;BME280;22989;55.998;37.212;2023-04-07T04:00:29;-11298.94;;;-145.39;32.63
37078;BME280;22989;55.998;37.212;2023-04-07T04:03:15;-11298.94;;;-145.39;30.97
37078;BME280;22989;55.998;37.212;2023-04-07T04:05:49;-11298.94;;;-145.39;31.39
37078;BME280;22989;55.998;37.212;2023-04-07T04:08:19;-11298.94;;;-145.39;31.18
37078;BME280;22989;55.998;37.212;2023-04-07T04:10:45;-11298.94;;;-145.39;30.38
37078;BME280;22989;55.998;37.212;2023-04-07T04:13:11;-11298.94;;;-145.39;31.00
37078;BME280;22989;55.998;37.212;2023-04-07T04:15:39;-11298.94;;;-145.39;30.08
37078;BME280;22989;55.998;37.212;2023-04-07T04:18:09;-11298.94;;;-145.39;30.75
37078;BME280;22989;55.998;37.212;2023-04-07T04:20:35;-11298.94;;;-145.39;30.59
37078;BME280;22989;55.998;37.212;2023-04-07T04:23:02;-11298.94;;;-145.39;29.51
37078;BME280;22989;55.998;37.212;2023-04-07T04:25:28;-11298.94;;;-145.39;29.01
37078;BME280;22989;55.998;37.212;2023-04-07T04:27:56;-11298.94;;;-145.39;29.67
37078;BME280;22989;55.998;37.212;2023-04-07T04:30:24;-11298.94;;;-145.39;29.40
37078;BME280;22989;55.998;37.212;2023-04-07T04:32:54;-11298.94;;;-145.39;28.43
37078;BME280;22989;55.998;37.212;2023-04-07T04:35:35;-11298.94;;;-145.39;27.96
37078;BME280;22989;55.998;37.212;2023-04-07T04:38:19;-11298.94;;;-145.39;28.58
37078;BME280;22989;55.998;37.212;2023-04-07T04:41:04;-11298.94;;;-145.39;28.31
37078;BME280;22989;55.998;37.212;2023-04-07T04:43:30;-11298.94;;;-145.39;28.56
37078;BME280;22989;55.998;37.212;2023-04-07T04:45:57;-11298.94;;;-145.39;27.44
37078;BME280;22989;55.998;37.212;2023-04-07T04:48:25;-11298.94;;;-145.39;27.46
37078;BME280;22989;55.998;37.212;2023-04-07T04:50:51;-11298.94;;;-145.39;28.15
37078;BME280;22989;55.998;37.212;2023-04-07T04:53:17;-11298.94;;;-145.39;28.48
37078;BME280;22989;55.998;37.212;2023-04-07T04:55:54;-11298.94;;;-145.39;28.66
37078;BME280;22989;55.998;37.212;2023-04-07T04:58:25;-11298.94;;;-145.39;27.38
37078;BME280;22989;55.998;37.212;2023-04-07T05:00:54;-11298.94;;;-145.39;27.02
37078;BME280;22989;55.998;37.212;2023-04-07T05:03:26;-11298.94;;;-145.39;26.22
37078;BME280;22989;55.998;37.212;2023-04-07T05:05:53;-11298.94;;;-145.39;26.21
37078;BME280;22989;55.998;37.212;2023-04-07T05:08:21;-11298.94;;;-145.39;25.62
37078;BME280;22989;55.998;37.212;2023-04-07T05:10:47;-11298.94;;;-145.39;26.41
37078;BME280;22989;55.998;37.212;2023-04-07T05:13:16;-11298.94;;;-145.39;25.62
37078;BME280;22989;55.998;37.212;2023-04-07T05:15:42;-11298.94;;;-145.39;25.88
37078;BME280;22989;55.998;37.212;2023-04-07T05:18:09;-11298.94;;;-145.39;26.05
37078;BME280;22989;55.998;37.212;2023-04-07T05:20:35;-11298.94;;;-145.39;26.45
37078;BME280;22989;55.998;37.212;2023-04-07T05:23:00;-11298.94;;;-145.39;26.31
37078;BME280;22989;55.998;37.212;2023-04-07T05:25:31;-11298.94;;;-145.39;25.63
37078;BME280;22989;55.998;37.212;2023-04-07T05:27:59;-11298.94;;;-145.39;26.17
37078;BME280;22989;55.998;37.212;2023-04-07T05:30:24;-11298.94;;;-145.39;25.09
37078;BME280;22989;55.998;37.212;2023-04-07T05:32:51;-11298.94;;;-145.39;25.65
37078;BME280;22989;55.998;37.212;2023-04-07T05:35:26;-11298.94;;;-145.39;26.54
37078;BME280;22989;55.998;37.212;2023-04-07T05:37:54;-11298.94;;;-145.39;26.33
37078;BME280;22989;55.998;37.212;2023-04-07T05:40:20;-11298.94;;;-145.39;26.05
37078;BME280;22989;55.998;37.212;2023-04-07T05:42:46;-11298.94;;;-145.39;25.22
37078;BME280;22989;55.998;37.212;2023-04-07T05:45:12;-11298.94;;;-145.39;24.69
37078;BME280;22989;55.998;37.212;2023-04-07T05:47:40;-11298.94;;;-145.39;24.50
37078;BME280;22989;55.998;37.212;2023-04-07T05:50:08;-11298.94;;;-145.39;24.56
37078;BME280;22989;55.998;37.212;2023-04-07T05:52:34;-11298.94;;;-145.39;23.54
37078;BME280;22989;55.998;37.212;2023-04-07T05:55:11;-11298.94;;;-145.39;24.15
37078;BME280;22989;55.998;37.212;2023-04-07T05:57:36;-11298.94;;;-145.39;24.66
37078;BME280;22989;55.998;37.212;2023-04-07T06:00:03;-11298.94;;;-145.39;24.74
37078;BME280;22989;55.998;37.212;2023-04-07T06:02:39;-11298.94;;;-145.39;24.79
37078;BME280;22989;55.998;37.212;2023-04-07T06:05:07;-11298.94;;;-145.39;24.04
37078;BME280;22989;55.998;37.212;2023-04-07T06:07:33;-11298.94;;;-145.39;24.01
37078;BME280;22989;55.998;37.212;2023-04-07T06:09:58;-11298.94;;;-145.39;23.74
37078;BME280;22989;55.998;37.212;2023-04-07T06:12:24;-11298.94;;;-145.39;23.99
37078;BME280;22989;55.998;37.212;2023-04-07T06:14:51;-11298.94;;;-145.39;23.79
37078;BME280;22989;55.998;37.212;2023-04-07T06:17:16;-11298.94;;;-145.39;24.02
37078;BME280;22989;55.998;37.212;2023-04-07T06:19:42;-11298.94;;;-145.39;24.44
37078;BME280;22989;55.998;37.212;2023-04-07T06:22:07;-11298.94;;;-145.39;24.12
37078;BME280;22989;55.998;37.212;2023-04-07T06:24:33;-11298.94;;;-145.39;23.16
37078;BME280;22989;55.998;37.212;2023-04-07T06:26:59;-11298.94;;;-145.39;23.07
37078;BME280;22989;55.998;37.212;2023-04-07T06:29:26;-11298.94;;;-145.39;23.29
37078;BME280;22989;55.998;37.212;2023-04-07T06:31:53;-11298.94;;;-145.39;23.73
37078;BME280;22989;55.998;37.212;2023-04-07T06:34:20;-11298.94;;;-145.39;23.17
37078;BME280;22989;55.998;37.212;2023-04-07T06:36:45;-11298.94;;;-145.39;22.91
37078;BME280;22989;55.998;37.212;2023-04-07T06:39:11;-11298.94;;;-145.39;23.30
37078;BME280;22989;55.998;37.212;2023-04-07T06:41:36;-11298.94;;;-145.39;23.26
37078;BME280;22989;55.998;37.212;2023-04-07T06:44:03;-11298.94;;;-145.39;22.23
37078;BME280;22989;55.998;37.212;2023-04-07T06:46:28;-11298.94;;;-145.39;22.63
37078;BME280;22989;55.998;37.212;2023-04-07T06:48:54;-11298.94;;;-145.39;23.39
37078;BME280;22989;55.998;37.212;2023-04-07T06:51:20;-11298.94;;;-145.39;23.21
37078;BME280;22989;55.998;37.212;2023-04-07T06:53:45;-11298.94;;;-145.39;23.06
37078;BME280;22989;55.998;37.212;2023-04-07T06:56:12;-11298.94;;;-145.39;23.76
37078;BME280;22989;55.998;37.212;2023-04-07T06:58:38;-11298.94;;;-145.39;22.83
37078;BME280;22989;55.998;37.212;2023-04-07T07:01:04;-11298.94;;;-145.39;23.38
37078;BME280;22989;55.998;37.212;2023-04-07T07:03:30;-11298.94;;;-145.39;23.10
37078;BME280;22989;55.998;37.212;2023-04-07T07:05:56;-11298.94;;;-145.39;23.26
37078;BME280;22989;55.998;37.212;2023-04-07T07:08:22;-11298.94;;;-145.39;22.72
37078;BME280;22989;55.998;37.212;2023-04-07T07:10:48;-11298.94;;;-145.39;22.65
37078;BME280;22989;55.998;37.212;2023-04-07T07:13:13;-11298.94;;;-145.39;23.35
37078;BME280;22989;55.998;37.212;2023-04-07T07:15:39;-11298.94;;;-145.39;23.43
37078;BME280;22989;55.998;37.212;2023-04-07T07:18:04;-11298.94;;;-145.39;23.70
37078;BME280;22989;55.998;37.212;2023-04-07T07:20:29;-11298.94;;;-145.39;23.85
37078;BME280;22989;55.998;37.212;2023-04-07T07:22:55;-11298.94;;;-145.39;24.42
37078;BME280;22989;55.998;37.212;2023-04-07T07:25:21;-11298.94;;;-145.39;24.40
37078;BME280;22989;55.998;37.212;2023-04-07T07:27:46;-11298.94;;;-145.39;24.47
37078;BME280;22989;55.998;37.212;2023-04-07T07:30:16;-11298.94;;;-145.39;25.25
37078;BME280;22989;55.998;37.212;2023-04-07T07:32:41;-11298.94;;;-145.39;25.72
37078;BME280;22989;55.998;37.212;2023-04-07T07:35:07;-11298.94;;;-145.39;25.80
37078;BME280;22989;55.998;37.212;2023-04-07T07:37:32;-11298.94;;;-145.39;25.92
37078;BME280;22989;55.998;37.212;2023-04-07T07:39:58;-11298.94;;;-145.39;26.39
37078;BME280;22989;55.998;37.212;2023-04-07T07:42:23;-11298.94;;;-145.39;26.75
37078;BME280;22989;55.998;37.212;2023-04-07T07:44:48;-11298.94;;;-145.39;27.29
37078;BME280;22989;55.998;37.212;2023-04-07T07:47:15;-11298.94;;;-145.39;27.44
37078;BME280;22989;55.998;37.212;2023-04-07T07:49:40;-11298.94;;;-145.39;27.79
37078;BME280;22989;55.998;37.212;2023-04-07T07:52:06;-11298.94;;;-145.39;28.44
37078;BME280;22989;55.998;37.212;2023-04-07T07:54:31;-11298.94;;;-145.39;29.06
37078;BME280;22989;55.998;37.212;2023-04-07T07:56:57;-11298.94;;;-145.39;29.16
37078;BME280;22989;55.998;37.212;2023-04-07T07:59:22;-11298.94;;;-145.39;28.87
37078;BME280;22989;55.998;37.212;2023-04-07T08:01:48;-11298.94;;;-145.39;29.12
37078;BME280;22989;55.998;37.212;2023-04-07T08:04:13;-11298.94;;;-145.39;29.15
37078;BME280;22989;55.998;37.212;2023-04-07T08:06:39;-11298.94;;;-145.39;28.99
37078;BME280;22989;55.998;37.212;2023-04-07T08:09:04;-11298.94;;;-145.39;29.30
37078;BME280;22989;55.998;37.212;2023-04-07T08:11:30;-11298.94;;;-145.39;29.18
37078;BME280;22989;55.998;37.212;2023-04-07T08:13:55;-11298.94;;;-145.39;29.28
37078;BME280;22989;55.998;37.212;2023-04-07T08:16:21;-11298.94;;;-145.39;28.86
37078;BME280;22989;55.998;37.212;2023-04-07T08:18:47;-11298.94;;;-145.39;28.78
37078;BME280;22989;55.998;37.212;2023-04-07T08:21:13;-11298.94;;;-145.39;29.01
37078;BME280;22989;55.998;37.212;2023-04-07T08:23:39;-11298.94;;;-145.39;29.36
37078;BME280;22989;55.998;37.212;2023-04-07T08:26:04;-11298.94;;;-145.39;29.63
37078;BME280;22989;55.998;37.212;2023-04-07T08:28:30;-11298.94;;;-145.39;29.85
37078;BME280;22989;55.998;37.212;2023-04-07T08:30:55;-11298.94;;;-145.39;29.51
37078;BME280;22989;55.998;37.212;2023-04-07T08:33:20;-11298.94;;;-145.39;29.56
37078;BME280;22989;55.998;37.212;2023-04-07T08:35:46;-11298.94;;;-145.39;29.90
37078;BME280;22989;55.998;37.212;2023-04-07T08:38:11;-11298.94;;;-145.39;29.84
37078;BME280;22989;55.998;37.212;2023-04-07T08:40:37;-11298.94;;;-145.39;29.87
37078;BME280;22989;55.998;37.212;2023-04-07T08:43:04;-11298.94;;;-145.39;30.09
37078;BME280;22989;55.998;37.212;2023-04-07T08:45:31;-11298.94;;;-145.39;30.43
37078;BME280;22989;55.998;37.212;2023-04-07T08:47:58;-11298.94;;;-145.39;30.47
37078;BME280;22989;55.998;37.212;2023-04-07T08:50:27;-11298.94;;;-145.39;30.00
37078;BME280;22989;55.998;37.212;2023-04-07T08:52:53;-11298.94;;;-145.39;30.05
37078;BME280;22989;55.998;37.212;2023-04-07T08:55:18;-11298.94;;;-145.39;30.13
37078;BME280;22989;55.998;37.212;2023-04-07T08:57:44;-11298.94;;;-145.39;29.92
37078;BME280;22989;55.998;37.212;2023-04-07T09:00:10;-11298.94;;;-145.39;29.93
37078;BME280;22989;55.998;37.212;2023-04-07T09:02:37;-11298.94;;;-145.39;29.68
37078;BME280;22989;55.998;37.212;2023-04-07T09:05:04;-11298.94;;;-145.39;29.75
37078;BME280;22989;55.998;37.212;2023-04-07T09:07:31;-11298.94;;;-145.39;29.94
37078;BME280;22989;55.998;37.212;2023-04-07T09:09:57;-11298.94;;;-145.39;29.88
37078;BME280;22989;55.998;37.212;2023-04-07T09:12:23;-11298.94;;;-145.39;29.84
37078;BME280;22989;55.998;37.212;2023-04-07T09:14:48;-11298.94;;;-145.39;29.72
37078;BME280;22989;55.998;37.212;2023-04-07T09:17:14;-11298.94;;;-145.39;29.85
37078;BME280;22989;55.998;37.212;2023-04-07T09:19:39;-11298.94;;;-145.39;29.79
37078;BME280;22989;55.998;37.212;2023-04-07T09:22:05;-11298.94;;;-145.39;29.67
37078;BME280;22989;55.998;37.212;2023-04-07T09:24:31;-11298.94;;;-145.39;29.05
37078;BME280;22989;55.998;37.212;2023-04-07T09:29:35;-11298.94;;;-145.39;29.47
37078;BME280;22989;55.998;37.212;2023-04-07T09:32:01;-11298.94;;;-145.39;29.36
37078;BME280;22989;55.998;37.212;2023-04-07T09:34:28;-11298.94;;;-145.39;28.82
37078;BME280;22989;55.998;37.212;2023-04-07T09:36:54;-11298.94;;;-145.39;29.03
37078;BME280;22989;55.998;37.212;2023-04-07T09:39:21;-11298.94;;;-145.39;28.94
37078;BME280;22989;55.998;37.212;2023-04-07T09:41:46;-11298.94;;;-145.39;29.17
37078;BME280;22989;55.998;37.212;2023-04-07T09:44:12;-11298.94;;;-145.39;29.11
37078;BME280;22989;55.998;37.212;2023-04-07T09:46:56;-11298.94;;;-145.39;28.74
37078;BME280;22989;55.998;37.212;2023-04-07T09:49:22;-11298.94;;;-145.39;28.53
37078;BME280;22989;55.998;37.212;2023-04-07T09:51:55;-11298.94;;;-145.39;28.80
37078;BME280;22989;55.998;37.212;2023-04-07T09:54:37;-11298.94;;;-145.39;28.77
37078;BME280;22989;55.998;37.212;2023-04-07T09:57:04;-11298.94;;;-145.39;28.80
37078;BME280;22989;55.998;37.212;2023-04-07T09:59:30;-11298.94;;;-145.39;28.84
37078;BME280;22989;55.998;37.212;2023-04-07T10:01:56;-11298.94;;;-145.39;28.96
37078;BME280;22989;55.998;37.212;2023-04-07T10:04:23;-11298.94;;;-145.39;28.93
37078;BME280;22989;55.998;37.212;2023-04-07T10:06:49;-11298.94;;;-145.39;29.08
37078;BME280;22989;55.998;37.212;2023-04-07T10:09:14;-11298.94;;;-145.39;28.70
37078;BME280;22989;55.998;37.212;2023-04-07T10:11:42;-11298.94;;;-145.39;28.89
37078;BME280;22989;55.998;37.212;2023-04-07T10:14:10;-11298.94;;;-145.39;28.68
37078;BME280;22989;55.998;37.212;2023-04-07T10:16:38;-11298.94;;;-145.39;28.89
37078;BME280;22989;55.998;37.212;2023-04-07T10:19:06;-11298.94;;;-145.39;28.84
37078;BME280;22989;55.998;37.212;2023-04-07T10:21:38;-11298.94;;;-145.39;29.11
37078;BME280;22989;55.998;37.212;2023-04-07T10:24:08;-11298.94;;;-145.39;29.24
37078;BME280;22989;55.998;37.212;2023-04-07T10:26:43;-11298.94;;;-145.39;29.61
37078;BME280;22989;55.998;37.212;2023-04-07T10:29:11;-11298.94;;;-145.39;29.33
37078;BME280;22989;55.998;37.212;2023-04-07T10:31:38;-11298.94;;;-145.39;29.43
37078;BME280;22989;55.998;37.212;2023-04-07T10:34:03;-11298.94;;;-145.39;28.73
37078;BME280;22989;55.998;37.212;2023-04-07T10:36:30;-11298.94;;;-145.39;28.75
37078;BME280;22989;55.998;37.212;2023-04-07T10:41:39;-11298.94;;;-145.39;29.24
37078;BME280;22989;55.998;37.212;2023-04-07T10:44:06;-11298.94;;;-145.39;29.03
37078;BME280;22989;55.998;37.212;2023-04-07T10:49:10;-11298.94;;;-145.39;28.83
37078;BME280;22989;55.998;37.212;2023-04-07T10:51:36;-11298.94;;;-145.39;28.79
37078;BME280;22989;55.998;37.212;2023-04-07T10:54:20;-11298.94;;;-145.39;28.60
37078;BME280;22989;55.998;37.212;2023-04-07T10:59:27;-11298.94;;;-145.39;29.13
37078;BME280;22989;55.998;37.212;2023-04-07T11:04:38;-11298.94;;;-145.39;28.65
37078;BME280;22989;55.998;37.212;2023-04-07T11:07:04;-11298.94;;;-145.39;28.56
37078;BME280;22989;55.998;37.212;2023-04-07T11:09:30;-11298.94;;;-145.39;28.77
37078;BME280;22989;55.998;37.212;2023-04-07T11:11:55;-11298.94;;;-145.39;28.45
37078;BME280;22989;55.998;37.212;2023-04-07T11:14:28;-11298.94;;;-145.39;28.40
37078;BME280;22989;55.998;37.212;2023-04-07T11:16:54;-11298.94;;;-145.39;28.50
37078;BME280;22989;55.998;37.212;2023-04-07T11:19:19;-11298.94;;;-145.39;28.26
37078;BME280;22989;55.998;37.212;2023-04-07T11:21:45;-11298.94;;;-145.39;28.38
37078;BME280;22989;55.998;37.212;2023-04-07T11:26:55;-11298.94;;;-145.39;28.47
37078;BME280;22989;55.998;37.212;2023-04-07T11:29:26;-11298.94;;;-145.39;28.46
37078;BME280;22989;55.998;37.212;2023-04-07T11:31:51;-11298.94;;;-145.39;28.46
37078;BME280;22989;55.998;37.212;2023-04-07T11:34:17;-11298.94;;;-145.39;28.80
37078;BME280;22989;55.998;37.212;2023-04-07T11:36:42;-11298.94;;;-145.39;28.45
37078;BME280;22989;55.998;37.212;2023-04-07T11:39:17;-11298.94;;;-145.39;29.15
37078;BME280;22989;55.998;37.212;2023-04-07T11:41:46;-11298.94;;;-145.39;28.81
37078;BME280;22989;55.998;37.212;2023-04-07T11:44:12;-11298.94;;;-145.39;28.70
37078;BME280;22989;55.998;37.212;2023-04-07T11:46:54;-11298.94;;;-145.39;28.75
37078;BME280;22989;55.998;37.212;2023-04-07T11:49:19;-11298.94;;;-145.39;28.71
37078;BME280;22989;55.998;37.212;2023-04-07T11:51:45;-11298.94;;;-145.39;28.49
37078;BME280;22989;55.998;37.212;2023-04-07T11:54:11;-11298.94;;;-145.39;28.26
37078;BME280;22989;55.998;37.212;2023-04-07T11:56:40;-11298.94;;;-145.39;28.63
37078;BME280;22989;55.998;37.212;2023-04-07T11:59:06;-11298.94;;;-145.39;28.28
37078;BME280;22989;55.998;37.212;2023-04-07T12:01:40;-11298.94;;;-145.39;28.46
37078;BME280;22989;55.998;37.212;2023-04-07T12:04:10;-11298.94;;;-145.39;28.37
37078;BME280;22989;55.998;37.212;2023-04-07T12:06:36;-11298.94;;;-145.39;28.18
37078;BME280;22989;55.998;37.212;2023-04-07T12:09:07;-11298.94;;;-145.39;28.56
37078;BME280;22989;55.998;37.212;2023-04-07T12:11:33;-11298.94;;;-145.39;28.66
37078;BME280;22989;55.998;37.212;2023-04-07T12:13:59;-11298.94;;;-145.39;28.79
37078;BME280;22989;55.998;37.212;2023-04-07T12:16:24;-11298.94;;;-145.39;27.87
37078;BME280;22989;55.998;37.212;2023-04-07T12:18:50;-11298.94;;;-145.39;27.89
37078;BME280;22989;55.998;37.212;2023-04-07T12:21:19;-11298.94;;;-145.39;28.16
37078;BME280;22989;55.998;37.212;2023-04-07T12:23:45;-11298.94;;;-145.39;28.21
37078;BME280;22989;55.998;37.212;2023-04-07T12:26:11;-11298.94;;;-145.39;27.91
37078;BME280;22989;55.998;37.212;2023-04-07T12:28:37;-11298.94;;;-145.39;27.65
37078;BME280;22989;55.998;37.212;2023-04-07T12:31:03;-11298.94;;;-145.39;28.02
37078;BME280;22989;55.998;37.212;2023-04-07T12:33:28;-11298.94;;;-145.39;27.65
37078;BME280;22989;55.998;37.212;2023-04-07T12:35:54;-11298.94;;;-145.39;27.73
37078;BME280;22989;55.998;37.212;2023-04-07T12:38:19;-11298.94;;;-145.39;28.10
37078;BME280;22989;55.998;37.212;2023-04-07T12:40:45;-11298.94;;;-145.39;27.98
37078;BME280;22989;55.998;37.212;2023-04-07T12:43:11;-11298.94;;;-145.39;27.81
37078;BME280;22989;55.998;37.212;2023-04-07T12:45:36;-11298.94;;;-145.39;27.67
37078;BME280;22989;55.998;37.212;2023-04-07T12:48:02;-11298.94;;;-145.39;27.63
37078;BME280;22989;55.998;37.212;2023-04-07T12:50:28;-11298.94;;;-145.39;27.78